sensor_id;sensor_type;location;lat;lon;timestamp;pressure;altitude;pressure_sealevel;temperature;humidity
26178;BME280;13924;47.670;10.310;2023-07-20T00:00:37;93200;;;22.5;100.0
26178;BME280;13924;47.670;10.310;2023-07-20T00:15:37;93190;;;22.0;100.0
26178;BME280;13924;47.670;10.310;2023-07-20T00:30:39;93180;;;22.0;100.0
26178;BME280;13924;47.670;10.310;2023-07-20T00:45:40;93170;;;22.1;100.0
26178;BME280;13924;47.670;10.310;2023-07-20T01:00:39;93180;;;22.0;100.0
26178;BME280;13924;47.670;10.310;2023-07-20T01:01:27;93170;;;22.0;100.0
26178;BME280;13924;47.670;10.310;2023-07-20T01:15:41;93180;;;22.0;100.0
26178;BME280;13924;47.670;10.310;2023-07-20T01:30:50;93160;;;22.0;100.0
26178;BME280;13924;47.670;10.310;2023-07-20T01:45:41;93160;;;22.1;100.0
26178;BME280;13924;47.670;10.310;2023-07-20T02:00:42;93160;;;22.2;100.0
26178;BME280;13924;47.670;10.310;2023-07-20T02:15:42;93160;;;22.2;100.0
26178;BME280;13924;47.670;10.310;2023-07-20T02:30:43;93180;;;22.1;100.0
26178;BME280;13924;47.670;10.310;2023-07-20T02:45:43;93190;;;22.0;100.0
26178;BME280;13924;47.670;10.310;2023-07-20T03:00:44;93200;;;21.9;100.0
26178;BME280;13924;47.670;10.310;2023-07-20T03:15:45;93200;;;21.7;100.0
26178;BME280;13924;47.670;10.310;2023-07-20T03:30:46;93210;;;21.9;100.0
26178;BME280;13924;47.670;10.310;2023-07-20T03:45:46;93220;;;21.6;100.0
26178;BME280;13924;47.670;10.310;2023-07-20T04:00:48;93240;;;21.7;100.0
26178;BME280;13924;47.670;10.310;2023-07-20T04:07:59;93230;;;21.6;100.0
26178;BME280;13924;47.670;10.310;2023-07-20T04:23:00;93230;;;21.6;100.0
26178;BME280;13924;47.670;10.310;2023-07-20T04:38:00;93240;;;21.4;100.0
26178;BME280;13924;47.670;10.310;2023-07-20T04:53:02;93260;;;19.5;100.0
26178;BME280;13924;47.670;10.310;2023-07-20T05:08:01;93270;;;20.1;100.0
26178;BME280;13924;47.670;10.310;2023-07-20T05:23:02;93290;;;19.0;100.0
26178;BME280;13924;47.670;10.310;2023-07-20T05:38:03;93290;;;19.1;100.0
26178;BME280;13924;47.670;10.310;2023-07-20T05:53:04;93320;;;19.4;100.0
26178;BME280;13924;47.670;10.310;2023-07-20T06:08:04;93340;;;18.9;100.0
26178;BME280;13924;47.670;10.310;2023-07-20T06:23:05;93310;;;19.2;100.0
26178;BME280;13924;47.670;10.310;2023-07-20T06:38:08;93310;;;19.2;100.0
26178;BME280;13924;47.670;10.310;2023-07-20T06:53:08;93280;;;19.3;100.0
26178;BME280;13924;47.670;10.310;2023-07-20T07:08:07;93260;;;19.4;100.0
26178;BME280;13924;47.670;10.310;2023-07-20T07:23:07;93250;;;19.7;100.0
26178;BME280;13924;47.670;10.310;2023-07-20T07:38:08;93240;;;19.8;100.0
26178;BME280;13924;47.670;10.310;2023-07-20T07:53:09;93260;;;19.3;100.0
26178;BME280;13924;47.670;10.310;2023-07-20T08:08:09;93250;;;19.7;100.0
26178;BME280;13924;47.670;10.310;2023-07-20T08:23:10;93260;;;20.1;100.0
26178;BME280;13924;47.670;10.310;2023-07-20T08:38:13;93250;;;20.3;100.0
26178;BME280;13924;47.670;10.310;2023-07-20T08:53:12;93250;;;20.7;100.0
26178;BME280;13924;47.670;10.310;2023-07-20T09:08:12;93240;;;20.9;100.0
26178;BME280;13924;47.670;10.310;2023-07-20T09:23:13;93230;;;21.2;100.0
26178;BME280;13924;47.670;10.310;2023-07-20T09:38:15;93230;;;20.4;100.0
26178;BME280;13924;47.670;10.310;2023-07-20T09:53:15;93210;;;21.4;100.0
26178;BME280;13924;47.670;10.310;2023-07-20T10:08:16;93200;;;23.2;100.0
26178;BME280;13924;47.670;10.310;2023-07-20T10:23:15;93190;;;24.1;92.4
26178;BME280;13924;47.670;10.310;2023-07-20T10:38:17;93190;;;24.7;89.5
26178;BME280;13924;47.670;10.310;2023-07-20T10:53:18;93170;;;24.7;89.4
26178;BME280;13924;47.670;10.310;2023-07-20T11:08:39;93160;;;25.6;77.1
26178;BME280;13924;47.670;10.310;2023-07-20T11:23:19;93150;;;25.9;82.2
26178;BME280;13924;47.670;10.310;2023-07-20T11:38:18;93140;;;25.7;85.6
26178;BME280;13924;47.670;10.310;2023-07-20T11:53:19;93120;;;27.0;81.1
26178;BME280;13924;47.670;10.310;2023-07-20T12:08:20;93100;;;27.4;62.6
26178;BME280;13924;47.670;10.310;2023-07-20T12:23:20;93090;;;25.9;71.9
26178;BME280;13924;47.670;10.310;2023-07-20T12:38:20;93090;;;27.4;59.9
26178;BME280;13924;47.670;10.310;2023-07-20T12:53:25;93090;;;27.4;59.9
26178;BME280;13924;47.670;10.310;2023-07-20T13:08:22;93050;;;29.6;55.1
26178;BME280;13924;47.670;10.310;2023-07-20T13:23:22;93040;;;26.5;62.4
26178;BME280;13924;47.670;10.310;2023-07-20T13:38:27;93040;;;26.5;62.4
26178;BME280;13924;47.670;10.310;2023-07-20T13:53:24;93020;;;27.3;61.1
26178;BME280;13924;47.670;10.310;2023-07-20T14:08:27;93000;;;29.2;51.4
26178;BME280;13924;47.670;10.310;2023-07-20T14:23:26;92990;;;26.6;60.2
26178;BME280;13924;47.670;10.310;2023-07-20T14:38:26;92980;;;27.4;58.1
26178;BME280;13924;47.670;10.310;2023-07-20T14:53:29;92980;;;27.4;58.1
26178;BME280;13924;47.670;10.310;2023-07-20T15:08:27;92960;;;24.9;71.0
26178;BME280;13924;47.670;10.310;2023-07-20T15:23:28;92970;;;26.0;63.8
26178;BME280;13924;47.670;10.310;2023-07-20T15:38:29;92950;;;26.0;77.2
26178;BME280;13924;47.670;10.310;2023-07-20T15:53:29;92950;;;26.8;65.7
26178;BME280;13924;47.670;10.310;2023-07-20T16:08:30;92940;;;26.4;69.4
26178;BME280;13924;47.670;10.310;2023-07-20T16:23:30;92920;;;25.5;64.6
26178;BME280;13924;47.670;10.310;2023-07-20T16:38:31;92920;;;25.4;71.0
26178;BME280;13924;47.670;10.310;2023-07-20T16:53:32;92910;;;24.4;76.3
26178;BME280;13924;47.670;10.310;2023-07-20T17:08:34;92920;;;24.9;69.5
26178;BME280;13924;47.670;10.310;2023-07-20T17:23:34;92910;;;25.2;68.6
26178;BME280;13924;47.670;10.310;2023-07-20T17:38:36;92900;;;24.8;70.2
26178;BME280;13924;47.670;10.310;2023-07-20T17:53:35;92910;;;24.8;72.4
26178;BME280;13924;47.670;10.310;2023-07-20T18:08:36;92900;;;24.2;89.3
26178;BME280;13924;47.670;10.310;2023-07-20T18:23:37;92900;;;24.2;89.3
26178;BME280;13924;47.670;10.310;2023-07-20T18:38:39;92890;;;24.2;87.0
26178;BME280;13924;47.670;10.310;2023-07-20T18:53:38;92890;;;23.2;100.0
26178;BME280;13924;47.670;10.310;2023-07-20T19:08:39;92900;;;23.3;100.0
26178;BME280;13924;47.670;10.310;2023-07-20T19:23:40;92900;;;23.8;100.0
26178;BME280;13924;47.670;10.310;2023-07-20T19:38:40;92920;;;23.7;100.0
26178;BME280;13924;47.670;10.310;2023-07-20T19:53:41;92930;;;23.6;100.0
26178;BME280;13924;47.670;10.310;2023-07-20T20:08:42;92940;;;23.1;100.0
26178;BME280;13924;47.670;10.310;2023-07-20T20:23:42;92940;;;23.0;100.0
26178;BME280;13924;47.670;10.310;2023-07-20T20:38:43;92920;;;23.0;100.0
26178;BME280;13924;47.670;10.310;2023-07-20T20:53:44;92920;;;21.7;100.0
26178;BME280;13924;47.670;10.310;2023-07-20T21:08:44;92930;;;21.1;100.0
26178;BME280;13924;47.670;10.310;2023-07-20T21:23:46;92940;;;20.0;100.0
26178;BME280;13924;47.670;10.310;2023-07-20T21:38:46;92920;;;21.1;100.0
26178;BME280;13924;47.670;10.310;2023-07-20T21:53:49;92920;;;21.1;100.0
26178;BME280;13924;47.670;10.310;2023-07-20T22:00:32;92930;;;20.3;100.0
26178;BME280;13924;47.670;10.310;2023-07-20T22:15:32;92930;;;21.2;100.0
26178;BME280;13924;47.670;10.310;2023-07-20T22:30:33;92910;;;21.7;100.0
26178;BME280;13924;47.670;10.310;2023-07-20T22:45:33;92900;;;20.6;100.0
26178;BME280;13924;47.670;10.310;2023-07-20T23:00:34;92890;;;21.3;100.0
26178;BME280;13924;47.670;10.310;2023-07-20T23:15:36;92890;;;19.4;100.0
26178;BME280;13924;47.670;10.310;2023-07-20T23:30:35;92870;;;20.0;100.0
26178;BME280;13924;47.670;10.310;2023-07-20T23:45:36;92850;;;21.2;100.0
